Time;durP1;ratioP1;P1;durP2;ratioP2;P2;SDS_P1;SDS_P2;PMS_P1;PMS_P2;Temp;Humidity;BMP_temperature;BMP_pressure;BME280_temperature;BME280_humidity;BME280_pressure;Samples;Min_cycle;Max_cycle;Signal;HPM_P1;HPM_P2
2022/08/07 00:00:37;;;;;;;;;;;21.40;64.70;;;;;;2004015;28;19905;-68
2022/08/07 00:01:35;;;;;;;;;;;21.40;64.70;;;;;;2004424;28;19944;-69
2022/08/07 00:02:34;;;;;;;;;;;21.40;64.70;;;;;;2005031;28;20004;-68
2022/08/07 00:03:33;;;;;;;;;;;21.40;64.70;;;;;;2005059;28;19905;-68
2022/08/07 00:04:31;;;;;;;;;;;21.40;64.70;;;;;;2004360;28;20374;-68
2022/08/07 00:05:30;;;;;;;;;;;21.40;64.80;;;;;;2004800;28;20004;-69
2022/08/07 00:06:28;;;;;;;;;;;21.40;64.80;;;;;;2005252;28;20352;-67
2022/08/07 00:07:27;;;;;;;;;;;21.40;64.80;;;;;;2005231;28;19944;-68
2022/08/07 00:08:25;;;;;;;;;;;21.40;64.80;;;;;;2005306;28;19912;-67
2022/08/07 00:09:24;;;;;;;;;;;21.40;64.80;;;;;;2005317;28;19955;-67
2022/08/07 00:10:22;;;;;;;;;;;21.40;64.80;;;;;;2006486;28;19905;-67
2022/08/07 00:11:21;;;;;;;;;;;21.40;64.80;;;;;;2005363;28;20348;-68
2022/08/07 00:12:19;;;;;;;;;;;21.40;64.80;;;;;;2005397;28;19905;-68
2022/08/07 00:13:19;;;;;;;;;;;21.40;64.80;;;;;;2005211;28;19915;-67
2022/08/07 00:14:17;;;;;;;;;;;21.40;64.80;;;;;;2005298;28;20311;-67
2022/08/07 00:15:16;;;;;;;;;;;21.40;64.80;;;;;;2006173;28;19981;-67
2022/08/07 00:16:14;;;;;;;;;;;21.40;64.80;;;;;;2007069;28;19905;-67
2022/08/07 00:17:13;;;;;;;;;;;21.40;64.90;;;;;;2007952;28;20352;-68
2022/08/07 00:18:12;;;;;;;;;;;21.40;64.80;;;;;;2000373;28;20289;-69
2022/08/07 00:19:11;;;;;;;;;;;21.40;64.80;;;;;;2000193;28;19913;-69
2022/08/07 00:20:09;;;;;;;;;;;21.40;64.90;;;;;;2007801;28;19912;-69
2022/08/07 00:21:08;;;;;;;;;;;21.40;64.90;;;;;;2008483;28;19915;-68
2022/08/07 00:22:07;;;;;;;;;;;21.40;64.90;;;;;;2008836;28;19906;-67
2022/08/07 00:23:05;;;;;;;;;;;21.40;64.90;;;;;;2008616;28;20335;-67
2022/08/07 00:24:04;;;;;;;;;;;21.40;64.90;;;;;;2007964;28;19906;-67
2022/08/07 00:25:04;;;;;;;;;;;21.40;64.90;;;;;;2007667;28;19905;-67
2022/08/07 00:26:03;;;;;;;;;;;21.40;64.90;;;;;;2008574;28;19969;-67
2022/08/07 00:27:02;;;;;;;;;;;21.40;64.90;;;;;;2009743;28;19905;-68
2022/08/07 00:28:01;;;;;;;;;;;21.40;64.90;;;;;;2009041;28;19928;-67
2022/08/07 00:28:59;;;;;;;;;;;21.40;64.90;;;;;;2000438;28;19912;-67
2022/08/07 00:29:58;;;;;;;;;;;21.40;65.00;;;;;;2000798;28;19917;-68
2022/08/07 00:30:56;;;;;;;;;;;21.40;65.00;;;;;;2008730;28;19981;-67
2022/08/07 00:31:58;;;;;;;;;;;21.30;64.90;;;;;;2009342;28;19905;-67
2022/08/07 00:32:58;;;;;;;;;;;21.40;65.00;;;;;;2008541;28;20057;-69
2022/08/07 00:33:56;;;;;;;;;;;21.40;65.00;;;;;;2008510;28;19984;-69
2022/08/07 00:34:56;;;;;;;;;;;21.40;65.00;;;;;;2007497;28;19967;-69
2022/08/07 00:35:55;;;;;;;;;;;21.40;65.00;;;;;;1999266;28;19905;-69
2022/08/07 00:36:53;;;;;;;;;;;21.40;65.00;;;;;;2000135;28;19960;-68
2022/08/07 00:37:52;;;;;;;;;;;21.40;65.00;;;;;;1999484;28;19913;-67
2022/08/07 00:38:50;;;;;;;;;;;21.40;65.00;;;;;;1999935;28;19912;-67
2022/08/07 00:39:49;;;;;;;;;;;21.40;65.10;;;;;;1999525;28;19905;-68
2022/08/07 00:40:48;;;;;;;;;;;21.40;65.00;;;;;;2000163;28;19956;-68
2022/08/07 00:41:48;;;;;;;;;;;21.40;65.10;;;;;;2007879;28;19959;-68
2022/08/07 00:42:47;;;;;;;;;;;21.40;65.10;;;;;;2007882;28;19924;-69
2022/08/07 00:43:45;;;;;;;;;;;21.30;65.00;;;;;;2007736;28;19910;-68
2022/08/07 00:44:44;;;;;;;;;;;21.30;65.00;;;;;;2007868;28;19909;-69
2022/08/07 00:45:42;;;;;;;;;;;21.40;65.10;;;;;;2007502;28;20025;-67
2022/08/07 00:46:41;;;;;;;;;;;21.40;65.10;;;;;;2006254;28;19905;-68
2022/08/07 00:47:39;;;;;;;;;;;21.40;65.10;;;;;;1997834;28;20425;-68
2022/08/07 00:48:38;;;;;;;;;;;21.40;65.10;;;;;;1997916;28;19910;-68
2022/08/07 00:49:36;;;;;;;;;;;21.40;65.10;;;;;;2005734;28;19906;-68
2022/08/07 00:50:35;;;;;;;;;;;21.40;65.20;;;;;;2006221;28;19928;-68
2022/08/07 00:51:34;;;;;;;;;;;21.40;65.10;;;;;;2006187;28;20371;-68
2022/08/07 00:52:32;;;;;;;;;;;21.40;65.10;;;;;;2006142;28;19905;-68
2022/08/07 00:53:31;;;;;;;;;;;21.40;65.10;;;;;;2006126;28;19905;-68
2022/08/07 00:54:29;;;;;;;;;;;21.40;65.10;;;;;;2006181;28;19905;-68
2022/08/07 00:55:31;;;;;;;;;;;21.40;65.20;;;;;;2006230;28;19916;-68
2022/08/07 00:56:29;;;;;;;;;;;21.40;65.80;;;;;;2006127;28;19905;-68
2022/08/07 00:57:28;;;;;;;;;;;21.40;65.20;;;;;;2005986;28;20312;-68
2022/08/07 00:58:26;;;;;;;;;;;21.30;65.10;;;;;;2006222;28;19912;-68
2022/08/07 00:59:25;;;;;;;;;;;21.40;65.20;;;;;;2006195;28;20376;-68
2022/08/07 01:00:24;;;;;;;;;;;21.40;65.20;;;;;;2006115;28;19912;-68
2022/08/07 01:01:22;;;;;;;;;;;21.30;65.20;;;;;;2006167;28;19956;-69
2022/08/07 01:02:22;;;;;;;;;;;21.30;65.20;;;;;;2006155;28;19906;-68
2022/08/07 01:03:21;;;;;;;;;;;21.30;65.20;;;;;;2006126;28;20274;-67
2022/08/07 01:04:20;;;;;;;;;;;21.30;65.20;;;;;;2006366;28;19963;-69
2022/08/07 01:05:19;;;;;;;;;;;21.30;65.20;;;;;;2006095;28;20403;-68
2022/08/07 01:06:18;;;;;;;;;;;21.30;65.20;;;;;;2006105;28;19909;-67
2022/08/07 01:07:19;;;;;;;;;;;21.30;65.20;;;;;;2006098;28;19913;-70
2022/08/07 01:08:17;;;;;;;;;;;21.30;65.30;;;;;;2006299;28;19906;-69
2022/08/07 01:09:16;;;;;;;;;;;21.30;65.20;;;;;;2006226;28;20249;-69
2022/08/07 01:10:16;;;;;;;;;;;21.30;65.30;;;;;;2006180;28;19905;-69
2022/08/07 01:11:15;;;;;;;;;;;21.30;65.30;;;;;;2007841;28;19912;-69
2022/08/07 01:12:14;;;;;;;;;;;21.30;65.30;;;;;;2007868;28;19905;-68
2022/08/07 01:13:13;;;;;;;;;;;21.30;65.30;;;;;;2007993;28;19905;-69
2022/08/07 01:14:12;;;;;;;;;;;21.30;65.30;;;;;;1998764;28;19913;-69
2022/08/07 01:15:10;;;;;;;;;;;21.30;65.30;;;;;;1997812;28;19906;-69
2022/08/07 01:16:09;;;;;;;;;;;21.30;65.30;;;;;;2005712;28;19912;-67
2022/08/07 01:17:08;;;;;;;;;;;21.30;65.30;;;;;;2005982;28;19913;-68
2022/08/07 01:18:07;;;;;;;;;;;21.30;65.30;;;;;;2006214;28;20438;-68
2022/08/07 01:19:06;;;;;;;;;;;21.30;65.30;;;;;;1997565;28;19968;-68
2022/08/07 01:20:09;;;;;;;;;;;21.30;65.30;;;;;;1997721;28;19913;-68
2022/08/07 01:21:10;;;;;;;;;;;21.30;65.30;;;;;;2006084;28;19955;-68
2022/08/07 01:22:09;;;;;;;;;;;21.30;65.30;;;;;;2005914;28;19906;-68
2022/08/07 01:23:08;;;;;;;;;;;21.30;65.40;;;;;;2005919;28;19916;-68
2022/08/07 01:24:07;;;;;;;;;;;21.30;65.40;;;;;;2006022;28;19909;-69
2022/08/07 01:25:07;;;;;;;;;;;21.30;65.40;;;;;;2006005;28;19905;-69
2022/08/07 01:26:06;;;;;;;;;;;21.30;65.40;;;;;;2006082;28;20301;-68
2022/08/07 01:27:05;;;;;;;;;;;21.30;65.40;;;;;;2006148;28;19905;-68
2022/08/07 01:28:03;;;;;;;;;;;21.30;65.40;;;;;;1997217;28;20492;-68
2022/08/07 01:29:03;;;;;;;;;;;21.30;65.40;;;;;;1997617;28;19909;-68
2022/08/07 01:30:02;;;;;;;;;;;21.30;65.40;;;;;;2005605;28;20352;-68
2022/08/07 01:31:01;;;;;;;;;;;21.30;65.40;;;;;;2005908;28;19928;-68
2022/08/07 01:32:00;;;;;;;;;;;21.30;65.40;;;;;;2005919;28;20313;-68
2022/08/07 01:32:58;;;;;;;;;;;21.30;65.40;;;;;;2005888;28;19916;-67
2022/08/07 01:34:01;;;;;;;;;;;21.30;65.40;;;;;;2005867;28;19958;-68
2022/08/07 01:35:00;;;;;;;;;;;21.30;65.50;;;;;;2005964;28;19928;-68
2022/08/07 01:35:59;;;;;;;;;;;21.30;65.50;;;;;;2005880;28;19932;-68
2022/08/07 01:36:58;;;;;;;;;;;21.30;65.50;;;;;;2005892;28;19940;-68
2022/08/07 01:37:56;;;;;;;;;;;21.30;65.50;;;;;;2005924;28;19905;-68
2022/08/07 01:38:55;;;;;;;;;;;21.30;65.50;;;;;;2005917;28;20368;-69
2022/08/07 01:39:57;;;;;;;;;;;21.30;65.50;;;;;;2005883;28;19906;-68
2022/08/07 01:40:57;;;;;;;;;;;21.30;65.50;;;;;;2005934;28;19996;-68
2022/08/07 01:41:56;;;;;;;;;;;21.30;65.60;;;;;;2005806;28;19955;-69
2022/08/07 01:42:55;;;;;;;;;;;21.30;65.60;;;;;;2005616;28;19921;-67
2022/08/07 01:43:54;;;;;;;;;;;21.30;65.60;;;;;;2005935;28;19959;-69
2022/08/07 01:44:52;;;;;;;;;;;21.30;65.60;;;;;;2005867;28;19905;-68
2022/08/07 01:45:52;;;;;;;;;;;21.30;65.60;;;;;;2005831;28;19988;-67
2022/08/07 01:46:50;;;;;;;;;;;21.30;65.60;;;;;;2005779;28;19910;-69
2022/08/07 01:47:49;;;;;;;;;;;21.30;65.60;;;;;;2005802;28;19905;-68
2022/08/07 01:48:47;;;;;;;;;;;21.30;65.60;;;;;;2006005;28;19936;-69
2022/08/07 01:49:46;;;;;;;;;;;21.30;65.60;;;;;;2005810;28;20323;-68
2022/08/07 01:50:45;;;;;;;;;;;21.30;65.60;;;;;;2005849;28;20274;-68
2022/08/07 01:51:45;;;;;;;;;;;21.30;65.60;;;;;;2005763;28;19913;-68
2022/08/07 01:52:45;;;;;;;;;;;21.30;65.60;;;;;;2005679;28;20404;-68
2022/08/07 01:53:46;;;;;;;;;;;21.30;65.70;;;;;;2005680;28;19910;-68
2022/08/07 01:54:45;;;;;;;;;;;21.20;65.60;;;;;;2005730;28;19941;-68
2022/08/07 01:55:49;;;;;;;;;;;21.30;65.70;;;;;;2005721;28;20004;-68
2022/08/07 01:56:50;;;;;;;;;;;21.30;65.70;;;;;;2005666;28;19909;-69
2022/08/07 01:57:51;;;;;;;;;;;21.20;65.60;;;;;;2005653;28;19905;-68
2022/08/07 01:58:53;;;;;;;;;;;21.30;65.70;;;;;;2005694;28;19928;-69
2022/08/07 01:59:56;;;;;;;;;;;21.20;65.60;;;;;;2005661;28;19913;-68
2022/08/07 02:00:57;;;;;;;;;;;21.30;65.80;;;;;;2005858;28;19935;-68
2022/08/07 02:01:59;;;;;;;;;;;21.30;65.70;;;;;;2005088;28;20338;-68
2022/08/07 02:03:00;;;;;;;;;;;21.20;65.70;;;;;;2005194;28;19909;-68
2022/08/07 02:04:01;;;;;;;;;;;21.20;65.70;;;;;;2005640;28;19963;-69
2022/08/07 02:05:03;;;;;;;;;;;21.20;65.70;;;;;;2005640;28;20311;-68
2022/08/07 02:06:03;;;;;;;;;;;21.20;65.70;;;;;;2005648;28;19913;-68
2022/08/07 02:07:03;;;;;;;;;;;21.20;65.70;;;;;;2005717;28;20357;-67
2022/08/07 02:08:04;;;;;;;;;;;21.20;65.70;;;;;;2005753;28;19905;-68
2022/08/07 02:09:03;;;;;;;;;;;21.20;65.70;;;;;;2005763;28;19905;-68
2022/08/07 02:10:03;;;;;;;;;;;21.20;65.70;;;;;;1997128;28;19906;-68
2022/08/07 02:11:02;;;;;;;;;;;21.20;65.70;;;;;;1998082;28;19906;-68
2022/08/07 02:12:15;;;;;;;;;;;21.20;65.70;;;;;;2005325;28;19955;-69
2022/08/07 02:13:15;;;;;;;;;;;21.20;65.70;;;;;;2005580;28;19905;-69
2022/08/07 02:14:14;;;;;;;;;;;21.20;65.80;;;;;;2005627;28;19909;-67
2022/08/07 02:15:13;;;;;;;;;;;21.20;65.70;;;;;;2005604;28;19975;-69
2022/08/07 02:16:13;;;;;;;;;;;21.20;65.80;;;;;;2005699;28;19975;-68
2022/08/07 02:17:12;;;;;;;;;;;21.20;65.80;;;;;;2005501;28;19909;-68
2022/08/07 02:18:11;;;;;;;;;;;21.20;65.80;;;;;;2005550;28;19905;-68
2022/08/07 02:19:12;;;;;;;;;;;21.20;65.80;;;;;;2005594;28;20380;-68
2022/08/07 02:20:11;;;;;;;;;;;21.20;65.80;;;;;;1997083;28;19909;-68
2022/08/07 02:21:10;;;;;;;;;;;21.20;65.80;;;;;;1997275;28;19910;-68
2022/08/07 02:22:10;;;;;;;;;;;21.20;65.80;;;;;;2005211;28;20305;-68
2022/08/07 02:23:09;;;;;;;;;;;21.20;65.80;;;;;;2005590;28;19956;-68
2022/08/07 02:24:09;;;;;;;;;;;21.20;65.80;;;;;;2005443;28;19909;-68
2022/08/07 02:25:08;;;;;;;;;;;21.20;65.80;;;;;;2005454;28;20003;-68
2022/08/07 02:26:07;;;;;;;;;;;21.20;65.90;;;;;;2005573;28;20470;-68
2022/08/07 02:27:07;;;;;;;;;;;21.20;65.80;;;;;;2005464;28;19905;-69
2022/08/07 02:28:06;;;;;;;;;;;21.20;65.80;;;;;;2005542;28;19905;-67
2022/08/07 02:29:05;;;;;;;;;;;21.20;65.80;;;;;;2005454;28;19906;-68
2022/08/07 02:30:04;;;;;;;;;;;21.20;65.90;;;;;;2005455;28;19905;-68
2022/08/07 02:31:05;;;;;;;;;;;21.20;65.90;;;;;;2005373;28;20253;-67
2022/08/07 02:32:04;;;;;;;;;;;21.20;65.90;;;;;;2005611;28;19912;-68
2022/08/07 02:33:03;;;;;;;;;;;21.20;65.90;;;;;;2005405;28;19905;-68
2022/08/07 02:34:03;;;;;;;;;;;21.20;65.90;;;;;;2005464;28;20400;-69
2022/08/07 02:35:03;;;;;;;;;;;21.20;65.90;;;;;;2005486;28;19945;-69
2022/08/07 02:36:03;;;;;;;;;;;21.20;65.90;;;;;;2005394;28;19983;-69
2022/08/07 02:37:02;;;;;;;;;;;21.10;65.80;;;;;;2005543;28;19971;-69
2022/08/07 02:38:02;;;;;;;;;;;21.20;65.90;;;;;;2005416;28;19924;-68
2022/08/07 02:39:03;;;;;;;;;;;21.20;66.00;;;;;;2005335;28;20365;-68
2022/08/07 02:40:02;;;;;;;;;;;21.20;65.90;;;;;;2005054;28;20352;-68
2022/08/07 02:41:01;;;;;;;;;;;21.20;66.00;;;;;;1996872;28;19909;-68
2022/08/07 02:42:00;;;;;;;;;;;21.20;65.90;;;;;;1996933;28;19909;-68
2022/08/07 02:43:00;;;;;;;;;;;21.20;66.00;;;;;;2004816;28;19919;-68
2022/08/07 02:44:00;;;;;;;;;;;21.20;66.00;;;;;;2005366;28;19909;-68
2022/08/07 02:45:00;;;;;;;;;;;21.20;66.00;;;;;;2005498;28;20352;-68
2022/08/07 02:45:59;;;;;;;;;;;21.20;65.90;;;;;;2005406;28;19971;-69
2022/08/07 02:46:59;;;;;;;;;;;21.10;65.80;;;;;;2005351;28;20184;-68
2022/08/07 02:47:57;;;;;;;;;;;21.20;66.00;;;;;;2005438;28;19948;-68
2022/08/07 02:48:56;;;;;;;;;;;21.20;66.00;;;;;;2005404;28;19912;-68
2022/08/07 02:49:54;;;;;;;;;;;21.20;66.00;;;;;;2005405;28;19997;-69
2022/08/07 02:50:54;;;;;;;;;;;21.20;66.00;;;;;;2005356;28;20357;-69
2022/08/07 02:51:54;;;;;;;;;;;21.10;65.90;;;;;;2005524;28;20267;-68
2022/08/07 02:52:54;;;;;;;;;;;21.20;66.00;;;;;;2005225;28;20371;-68
2022/08/07 02:53:53;;;;;;;;;;;21.10;65.90;;;;;;1996737;28;20000;-69
2022/08/07 02:54:52;;;;;;;;;;;21.10;65.90;;;;;;1996882;28;19937;-68
2022/08/07 02:55:51;;;;;;;;;;;21.10;65.90;;;;;;2004921;28;19935;-69
2022/08/07 02:56:51;;;;;;;;;;;21.10;65.90;;;;;;2005210;28;20280;-68
2022/08/07 02:57:51;;;;;;;;;;;21.10;65.90;;;;;;2005342;28;19905;-69
2022/08/07 02:58:50;;;;;;;;;;;21.10;66.00;;;;;;2005331;28;19964;-68
2022/08/07 02:59:50;;;;;;;;;;;21.10;65.90;;;;;;2005262;28;20364;-69
2022/08/07 03:00:50;;;;;;;;;;;21.10;66.00;;;;;;2005369;28;20345;-68
2022/08/07 03:01:48;;;;;;;;;;;21.10;65.90;;;;;;1996740;28;19946;-69
2022/08/07 03:02:48;;;;;;;;;;;21.10;65.90;;;;;;1996767;28;19906;-68
2022/08/07 03:03:47;;;;;;;;;;;21.10;66.00;;;;;;2004866;28;19992;-69
2022/08/07 03:04:46;;;;;;;;;;;21.10;66.00;;;;;;2005193;28;20284;-69
2022/08/07 03:05:45;;;;;;;;;;;21.10;66.00;;;;;;2005159;28;19916;-69
2022/08/07 03:06:45;;;;;;;;;;;21.10;66.00;;;;;;2005291;28;19905;-70
2022/08/07 03:07:46;;;;;;;;;;;21.10;66.00;;;;;;2005292;28;19909;-69
2022/08/07 03:08:45;;;;;;;;;;;21.10;66.10;;;;;;2005300;28;20044;-69
2022/08/07 03:09:43;;;;;;;;;;;21.10;66.00;;;;;;2005185;28;19905;-69
2022/08/07 03:10:44;;;;;;;;;;;21.10;66.10;;;;;;2005271;28;19913;-69
2022/08/07 03:11:44;;;;;;;;;;;21.10;66.10;;;;;;2005119;28;19905;-67
2022/08/07 03:12:44;;;;;;;;;;;21.10;66.10;;;;;;2005099;28;19928;-69
2022/08/07 03:13:43;;;;;;;;;;;21.10;66.10;;;;;;2005195;28;20003;-69
2022/08/07 03:14:43;;;;;;;;;;;21.10;66.10;;;;;;2005231;28;20284;-69
2022/08/07 03:15:42;;;;;;;;;;;21.10;66.00;;;;;;2005323;28;19906;-69
2022/08/07 03:16:41;;;;;;;;;;;21.10;66.00;;;;;;2005195;28;19947;-67
2022/08/07 03:17:41;;;;;;;;;;;21.10;66.00;;;;;;2005011;28;20391;-67
2022/08/07 03:18:39;;;;;;;;;;;21.10;66.10;;;;;;2005106;28;19905;-70
2022/08/07 03:19:38;;;;;;;;;;;21.10;66.10;;;;;;2005173;28;20333;-69
2022/08/07 03:20:38;;;;;;;;;;;21.10;66.70;;;;;;2005307;28;19906;-68
2022/08/07 03:21:37;;;;;;;;;;;21.10;66.10;;;;;;2005161;28;20411;-68
2022/08/07 03:22:37;;;;;;;;;;;21.10;66.10;;;;;;2005106;28;20016;-68
2022/08/07 03:23:36;;;;;;;;;;;21.10;66.10;;;;;;2005013;28;19913;-68
2022/08/07 03:24:35;;;;;;;;;;;21.10;66.20;;;;;;2004411;28;20304;-70
2022/08/07 03:25:36;;;;;;;;;;;21.10;66.80;;;;;;2004560;28;19906;-68
2022/08/07 03:26:36;;;;;;;;;;;21.10;66.10;;;;;;1996717;28;19949;-69
2022/08/07 03:27:35;;;;;;;;;;;21.10;66.10;;;;;;1996618;28;19909;-69
2022/08/07 03:28:34;;;;;;;;;;;21.10;66.10;;;;;;2004823;28;20420;-68
2022/08/07 03:29:36;;;;;;;;;;;21.10;66.10;;;;;;2005088;28;20272;-68
2022/08/07 03:30:34;;;;;;;;;;;21.10;66.10;;;;;;2005024;28;19906;-68
2022/08/07 03:31:33;;;;;;;;;;;21.10;66.20;;;;;;2005213;28;19912;-68
2022/08/07 03:32:33;;;;;;;;;;;21.10;66.20;;;;;;2005019;28;19939;-68
2022/08/07 03:33:31;;;;;;;;;;;21.10;66.20;;;;;;2004986;28;19963;-68
2022/08/07 03:34:31;;;;;;;;;;;21.10;66.20;;;;;;2005099;28;19905;-68
2022/08/07 03:35:29;;;;;;;;;;;21.10;66.20;;;;;;2004948;28;19911;-68
2022/08/07 03:36:29;;;;;;;;;;;21.10;66.20;;;;;;2005115;28;19909;-68
2022/08/07 03:37:29;;;;;;;;;;;21.10;66.20;;;;;;2004906;28;19909;-68
2022/08/07 03:38:28;;;;;;;;;;;21.10;66.20;;;;;;2004999;28;19991;-68
2022/08/07 03:39:28;;;;;;;;;;;21.10;66.20;;;;;;2005019;28;19913;-68
2022/08/07 03:40:26;;;;;;;;;;;21.10;66.20;;;;;;2005049;28;19937;-68
2022/08/07 03:41:25;;;;;;;;;;;21.10;66.20;;;;;;2004859;28;20353;-68
2022/08/07 03:42:24;;;;;;;;;;;21.10;66.30;;;;;;2005008;28;19925;-68
2022/08/07 03:43:23;;;;;;;;;;;21.10;66.30;;;;;;1989495;28;20481;-68
2022/08/07 03:44:22;;;;;;;;;;;21.10;66.20;;;;;;1989449;28;19921;-68
2022/08/07 03:45:22;;;;;;;;;;;21.10;66.30;;;;;;1989493;28;19961;-68
2022/08/07 03:46:21;;;;;;;;;;;21.10;66.20;;;;;;1989350;28;19913;-67
2022/08/07 03:47:20;;;;;;;;;;;21.10;66.30;;;;;;1989409;28;19949;-67
2022/08/07 03:48:18;;;;;;;;;;;21.00;66.20;;;;;;1989419;28;20388;-68
2022/08/07 03:49:17;;;;;;;;;;;21.10;66.20;;;;;;1989327;28;19906;-67
2022/08/07 03:50:18;;;;;;;;;;;21.10;66.20;;;;;;1989470;28;19906;-68
2022/08/07 03:51:19;;;;;;;;;;;21.10;66.20;;;;;;1988633;28;20296;-67
2022/08/07 03:52:19;;;;;;;;;;;21.10;66.30;;;;;;1988485;28;19960;-68
2022/08/07 03:53:17;;;;;;;;;;;21.00;66.20;;;;;;1989486;28;19949;-67
2022/08/07 03:54:16;;;;;;;;;;;21.00;66.20;;;;;;1989344;28;19906;-70
2022/08/07 03:55:15;;;;;;;;;;;21.00;66.20;;;;;;1989433;28;19948;-68
2022/08/07 03:56:20;;;;;;;;;;;21.00;66.20;;;;;;1989431;28;19949;-68
2022/08/07 03:57:19;;;;;;;;;;;21.00;66.20;;;;;;1989454;28;19918;-68
2022/08/07 03:58:19;;;;;;;;;;;21.00;66.20;;;;;;1989339;28;19906;-68
2022/08/07 03:59:17;;;;;;;;;;;21.00;66.30;;;;;;1989323;28;19913;-68
2022/08/07 04:00:16;;;;;;;;;;;21.00;66.30;;;;;;1990340;28;20340;-69
2022/08/07 04:01:16;;;;;;;;;;;21.00;66.30;;;;;;1990899;28;19962;-69
2022/08/07 04:02:14;;;;;;;;;;;21.00;66.30;;;;;;1990791;28;19906;-69
2022/08/07 04:03:13;;;;;;;;;;;21.00;66.30;;;;;;1989935;28;19913;-69
2022/08/07 04:04:14;;;;;;;;;;;21.00;66.20;;;;;;1989133;28;19936;-70
2022/08/07 04:05:13;;;;;;;;;;;21.00;66.30;;;;;;1989586;28;19906;-67
2022/08/07 04:06:11;;;;;;;;;;;21.00;66.30;;;;;;1996504;28;20385;-69
2022/08/07 04:07:10;;;;;;;;;;;21.00;66.30;;;;;;1996632;28;19996;-67
2022/08/07 04:08:10;;;;;;;;;;;21.00;66.30;;;;;;1989221;28;19945;-68
2022/08/07 04:09:10;;;;;;;;;;;21.00;66.30;;;;;;1988828;28;19961;-70
2022/08/07 04:10:08;;;;;;;;;;;21.00;66.30;;;;;;1989545;28;19910;-70
2022/08/07 04:11:07;;;;;;;;;;;21.00;66.30;;;;;;1988646;28;19906;-69
2022/08/07 04:12:06;;;;;;;;;;;21.00;66.30;;;;;;1988745;28;19906;-68
2022/08/07 04:13:06;;;;;;;;;;;21.00;66.30;;;;;;1988678;28;19953;-68
2022/08/07 04:14:05;;;;;;;;;;;21.00;66.30;;;;;;1988724;28;19972;-68
2022/08/07 04:15:04;;;;;;;;;;;21.00;66.30;;;;;;1989278;28;19906;-68
2022/08/07 04:16:03;;;;;;;;;;;21.00;66.30;;;;;;1989346;28;19960;-69
2022/08/07 04:17:01;;;;;;;;;;;21.00;66.30;;;;;;1989454;28;19906;-68
2022/08/07 04:18:01;;;;;;;;;;;21.00;66.30;;;;;;1989229;28;19906;-68
2022/08/07 04:18:59;;;;;;;;;;;21.00;66.30;;;;;;1989555;28;19914;-68
2022/08/07 04:19:58;;;;;;;;;;;21.00;66.30;;;;;;1989457;28;20353;-68
2022/08/07 04:20:57;;;;;;;;;;;21.00;66.40;;;;;;1989296;28;19906;-68
2022/08/07 04:21:56;;;;;;;;;;;21.00;66.40;;;;;;1989293;28;19913;-68
2022/08/07 04:22:54;;;;;;;;;;;21.00;66.40;;;;;;1989274;28;19961;-69
2022/08/07 04:23:53;;;;;;;;;;;21.00;66.30;;;;;;1989393;28;20064;-68
2022/08/07 04:24:51;;;;;;;;;;;21.00;66.40;;;;;;1989216;28;19906;-68
2022/08/07 04:25:51;;;;;;;;;;;21.00;66.40;;;;;;1989343;28;19944;-68
2022/08/07 04:26:50;;;;;;;;;;;21.00;66.40;;;;;;1989291;28;19906;-68
2022/08/07 04:27:48;;;;;;;;;;;21.00;66.40;;;;;;1989357;28;20004;-68
2022/08/07 04:28:47;;;;;;;;;;;21.00;66.40;;;;;;1989172;28;19907;-68
2022/08/07 04:29:45;;;;;;;;;;;21.00;66.40;;;;;;1989284;28;19910;-68
2022/08/07 04:30:46;;;;;;;;;;;21.00;66.40;;;;;;1989236;28;19910;-68
2022/08/07 04:31:45;;;;;;;;;;;21.00;66.40;;;;;;1989333;28;19906;-68
2022/08/07 04:32:44;;;;;;;;;;;21.00;66.40;;;;;;1989247;28;19910;-68
2022/08/07 04:33:44;;;;;;;;;;;21.00;66.40;;;;;;1989355;28;20274;-68
2022/08/07 04:34:43;;;;;;;;;;;21.00;66.40;;;;;;1989243;28;20357;-68
2022/08/07 04:35:43;;;;;;;;;;;21.00;66.40;;;;;;1989248;28;19973;-69
2022/08/07 04:36:42;;;;;;;;;;;21.00;66.40;;;;;;1989306;28;19906;-68
2022/08/07 04:37:40;;;;;;;;;;;21.00;66.40;;;;;;1989159;28;20374;-68
2022/08/07 04:38:39;;;;;;;;;;;21.00;66.40;;;;;;1989256;28;19910;-68
2022/08/07 04:39:39;;;;;;;;;;;21.00;66.40;;;;;;1989245;28;19972;-68
2022/08/07 04:40:39;;;;;;;;;;;21.00;66.40;;;;;;1988554;28;19929;-68
2022/08/07 04:41:37;;;;;;;;;;;21.00;66.40;;;;;;1988713;28;20377;-68
2022/08/07 04:42:36;;;;;;;;;;;21.00;66.40;;;;;;1992194;28;19907;-68
2022/08/07 04:43:39;;;;;;;;;;;21.00;66.40;;;;;;2004941;28;19976;-68
2022/08/07 04:44:38;;;;;;;;;;;21.00;66.40;;;;;;2004817;28;19932;-68
2022/08/07 04:45:37;;;;;;;;;;;21.00;66.40;;;;;;2004832;28;19988;-68
2022/08/07 04:46:35;;;;;;;;;;;21.00;66.40;;;;;;2004829;28;19906;-68
2022/08/07 04:47:38;;;;;;;;;;;21.00;66.40;;;;;;2004860;28;19909;-68
2022/08/07 04:48:47;;;;;;;;;;;21.00;66.40;;;;;;2004689;28;19960;-68
2022/08/07 04:49:51;;;;;;;;;;;21.00;66.40;;;;;;1996281;28;19956;-68
2022/08/07 04:50:53;;;;;;;;;;;21.00;66.40;;;;;;1996843;28;20489;-68
2022/08/07 04:52:09;;;;;;;;;;;21.00;66.40;;;;;;1996261;28;19914;-68
2022/08/07 04:53:14;;;;;;;;;;;21.00;66.40;;;;;;1998324;28;19965;-68
2022/08/07 04:54:23;;;;;;;;;;;21.00;66.50;;;;;;2004791;28;19905;-68
2022/08/07 04:55:22;;;;;;;;;;;21.00;66.40;;;;;;2004725;28;19910;-68
2022/08/07 04:56:23;;;;;;;;;;;21.00;66.40;;;;;;2004701;28;20372;-69
2022/08/07 04:57:27;;;;;;;;;;;21.00;66.40;;;;;;2004664;28;19967;-68
2022/08/07 04:58:29;;;;;;;;;;;21.00;66.50;;;;;;2004904;28;19963;-68
2022/08/07 04:59:35;;;;;;;;;;;21.00;66.40;;;;;;2004698;28;20280;-68
2022/08/07 05:00:44;;;;;;;;;;;21.00;66.40;;;;;;2004777;28;20324;-69
2022/08/07 05:01:53;;;;;;;;;;;21.00;66.40;;;;;;2004737;28;20387;-69
2022/08/07 05:03:01;;;;;;;;;;;21.00;66.50;;;;;;2005383;28;19912;-69
2022/08/07 05:04:23;;;;;;;;;;;21.00;66.40;;;;;;2006096;28;20280;-70
2022/08/07 05:05:24;;;;;;;;;;;21.00;66.40;;;;;;2006345;28;19905;-68
2022/08/07 05:06:34;;;;;;;;;;;21.00;66.40;;;;;;2006115;28;19952;-69
2022/08/07 05:07:39;;;;;;;;;;;21.00;66.40;;;;;;1997701;28;20020;-68
2022/08/07 05:08:44;;;;;;;;;;;21.00;66.40;;;;;;1997960;28;20313;-69
2022/08/07 05:09:49;;;;;;;;;;;21.00;66.50;;;;;;1997601;28;20012;-68
2022/08/07 05:10:51;;;;;;;;;;;21.00;66.40;;;;;;1997959;28;20403;-68
2022/08/07 05:11:51;;;;;;;;;;;21.00;66.40;;;;;;2006161;28;19910;-69
2022/08/07 05:12:53;;;;;;;;;;;21.00;66.50;;;;;;2005983;28;19913;-69
2022/08/07 05:13:58;;;;;;;;;;;21.00;66.50;;;;;;2005934;28;19906;-69
2022/08/07 05:15:14;;;;;;;;;;;21.00;66.50;;;;;;2006163;28;19912;-69
2022/08/07 05:16:13;;;;;;;;;;;21.00;66.50;;;;;;2006155;28;19905;-69
2022/08/07 05:17:13;;;;;;;;;;;21.00;66.50;;;;;;2005952;28;19967;-70
2022/08/07 05:18:13;;;;;;;;;;;21.00;66.50;;;;;;2006014;28;20036;-70
2022/08/07 05:19:14;;;;;;;;;;;21.00;66.50;;;;;;2006051;28;20353;-69
2022/08/07 05:20:14;;;;;;;;;;;21.00;66.50;;;;;;2006092;28;20272;-69
2022/08/07 05:21:17;;;;;;;;;;;21.00;67.20;;;;;;2006080;28;20182;-69
2022/08/07 05:22:17;;;;;;;;;;;21.00;66.50;;;;;;1997410;28;19905;-70
2022/08/07 05:23:19;;;;;;;;;;;21.00;66.50;;;;;;1997611;28;19905;-69
2022/08/07 05:24:19;;;;;;;;;;;21.00;66.50;;;;;;2005975;28;20003;-70
2022/08/07 05:25:20;;;;;;;;;;;21.00;66.50;;;;;;2005940;28;19905;-70
2022/08/07 05:26:20;;;;;;;;;;;21.00;66.50;;;;;;2006093;28;19916;-70
2022/08/07 05:27:19;;;;;;;;;;;21.00;66.50;;;;;;2006035;28;19916;-70
2022/08/07 05:28:18;;;;;;;;;;;21.00;66.50;;;;;;2005999;28;19906;-69
2022/08/07 05:29:18;;;;;;;;;;;21.00;66.50;;;;;;2006022;28;19992;-70
2022/08/07 05:30:17;;;;;;;;;;;21.00;66.50;;;;;;2005939;28;19906;-69
2022/08/07 05:31:20;;;;;;;;;;;21.00;66.40;;;;;;1997496;28;20376;-69
2022/08/07 05:32:20;;;;;;;;;;;21.00;66.40;;;;;;1997629;28;20009;-69
2022/08/07 05:33:19;;;;;;;;;;;21.00;66.40;;;;;;2005985;28;19913;-68
2022/08/07 05:34:18;;;;;;;;;;;21.00;66.50;;;;;;2006006;28;19905;-69
2022/08/07 05:35:18;;;;;;;;;;;21.00;66.40;;;;;;2005879;28;19905;-69
2022/08/07 05:36:18;;;;;;;;;;;21.00;66.40;;;;;;2006002;28;19905;-69
2022/08/07 05:37:17;;;;;;;;;;;21.00;66.50;;;;;;2005849;28;19955;-69
2022/08/07 05:38:16;;;;;;;;;;;21.00;66.50;;;;;;2005855;28;19928;-69
2022/08/07 05:39:16;;;;;;;;;;;21.00;66.40;;;;;;2005939;28;20013;-70
2022/08/07 05:40:16;;;;;;;;;;;21.00;66.40;;;;;;1997363;28;19981;-70
2022/08/07 05:41:15;;;;;;;;;;;21.00;66.50;;;;;;1997396;28;19905;-68
2022/08/07 05:42:14;;;;;;;;;;;21.00;66.50;;;;;;1997375;28;20468;-68
2022/08/07 05:43:12;;;;;;;;;;;21.00;66.50;;;;;;2005262;28;19913;-68
2022/08/07 05:44:11;;;;;;;;;;;21.00;66.50;;;;;;2005857;28;19905;-69
2022/08/07 05:45:10;;;;;;;;;;;21.00;66.50;;;;;;2005845;28;20276;-69
2022/08/07 05:46:09;;;;;;;;;;;21.00;66.40;;;;;;2005855;28;19956;-68
2022/08/07 05:47:09;;;;;;;;;;;21.00;66.40;;;;;;2005859;28;20013;-68
2022/08/07 05:48:08;;;;;;;;;;;21.00;66.40;;;;;;2005840;28;19905;-68